Telluride Regional Airport

Current Flights

Departures
Arrivals
Number Arrival From Airline
 LXJ587 07:13  Concord Flexjet
 4B732 12:30  Denver Aviastar
 KG3712 12:45  Denver  Key Lime Air
 1I778 14:37  Denver NetJets
 4B736 20:20  Denver Aviastar
Info
Name: Telluride Regional Airport
Identifier:  TEX/KTEX
Local Time:  24. May 01:29
City
Flights per Day
6 flights
Distance: 469km (291mi)
Punctuality
78% (1 flights per day delayed)
Delay Average: 24 minutes
Current Weather
 1 C (Humidity: 59%)
  4kt (7km/h / 4mph) from 100°
  16km (10 mi.)
 
 METAR KTEX 240715Z AUTO 10004KT 10SM CLR 01/M06 A3016 RMK AO2

Current Delays

Departures
N/A
Arrivals
N/A

Destinations

Top Destinations
Airport Flights
per week
Seats
per week
  Denver (DEN) 14 - 2 0
  Denver (APA) <1 - 0 0
  Los Angeles (LAX) <1 - 0 0

Airlines & Planes

Top Airlines
Airline Flights
per Day
Seats
per Day
Boutique Air 1 -
  Key Lime Air <1 -
Aviastar <1 -
NetJets <1 -
Gama Aviation <1 -
Flexjet <1 -
Top Plane Types
Manufacturer Model Flights Seats
Pilatus PC-12 1.7/day - 0
Dornier 328 0.5/day - 0
Beech B300 Super King Air 350 0.1/day - 0
Cessna C56X 0.1/day - -0.06666666666666667
Cessna C525 0.1/day - 0